Houthalen, Belgium
Current Conditions -  °F | °C
As of 6:55 PM on Saturday 22 Nov 2014 (Local Time) from EBBL Reporting Station
Overcast Overcast  
Wind Chill: 48°   Ceiling: 17000
Heat Index: 48°   Visibility: NA
Dew Point: 46°   Wind: 1mph
Humidity: 93%   Direction: NA
Pressure: 30.03"   Gusts: NA
Location:  51.03°N, 5.37°E
Report Text: EBBL 221755Z AUTO VRB01KT //// OVC170/// 09/08 Q1017 BLU
Loading
Personal Weather Stations






























Interactive Weather Map New forecast layout! Learn more

10-Day Weather Forecast

Advertisements
Track Severe Weather on mobile